Time;durP1;ratioP1;P1;durP2;ratioP2;P2;SDS_P1;SDS_P2;PMS_P1;PMS_P2;Temp;Humidity;BMP_temperature;BMP_pressure;BME280_temperature;BME280_humidity;BME280_pressure;Samples;Min_cycle;Max_cycle;Signal;HPM_P1;HPM_P2
2023/10/20 00:00:52;;;;;;;;;1.75;1.75;;;;;21.98;100.00;97451.94;2059999;28;46692;-59
2023/10/20 00:01:52;;;;;;;;;1.00;1.00;;;;;21.99;100.00;97444.69;2062947;28;46784;-57
2023/10/20 00:02:52;;;;;;;;;2.00;2.00;;;;;22.00;100.00;97447.19;2059057;28;47280;-59
2023/10/20 00:03:53;;;;;;;;;1.33;1.33;;;;;22.02;100.00;97447.84;2062860;28;46574;-56
2023/10/20 00:04:53;;;;;;;;;3.00;3.00;;;;;22.02;100.00;97442.44;2060169;28;46196;-55
2023/10/20 00:05:56;;;;;;;;;1.33;1.33;;;;;22.02;100.00;97445.13;2056814;28;46406;-59
2023/10/20 00:06:58;;;;;;;;;0.00;0.00;;;;;22.02;100.00;97447.00;2061840;28;46560;-60
2023/10/20 00:07:58;;;;;;;;;0.75;0.75;;;;;22.00;100.00;97446.34;2063177;28;46452;-56
2023/10/20 00:08:59;;;;;;;;;1.00;0.67;;;;;21.99;100.00;97444.69;2061281;28;46518;-57
2023/10/20 00:09:59;;;;;;;;;0.00;0.00;;;;;21.97;100.00;97442.13;2063184;28;46823;-58
2023/10/20 00:11:04;;;;;;;;;0.00;0.00;;;;;21.96;100.00;97439.63;2059995;28;46616;-58
2023/10/20 00:12:04;;;;;;;;;0.00;0.00;;;;;21.95;100.00;97437.94;2061182;28;46242;-58
2023/10/20 00:13:06;;;;;;;;;0.00;0.00;;;;;21.94;100.00;97436.28;2056153;28;46768;-59
2023/10/20 00:14:06;;;;;;;;;0.00;0.00;;;;;21.92;100.00;97427.53;2061177;28;46956;-57
2023/10/20 00:15:09;;;;;;;;;0.33;0.00;;;;;21.92;100.00;97431.06;2059188;28;46542;-59
2023/10/20 00:16:09;;;;;;;;;0.00;0.00;;;;;21.92;100.00;97424.84;2057090;28;46710;-54
2023/10/20 00:17:09;;;;;;;;;0.00;0.00;;;;;21.90;100.00;97427.72;2061891;28;46275;-57
2023/10/20 00:18:10;;;;;;;;;0.00;0.00;;;;;21.89;100.00;97423.34;2062537;28;46144;-56
2023/10/20 00:19:11;;;;;;;;;0.00;0.00;;;;;21.88;100.00;97421.66;2061074;28;46496;-58
2023/10/20 00:20:12;;;;;;;;;0.25;0.00;;;;;21.88;100.00;97415.44;2056708;28;47149;-58
2023/10/20 00:21:12;;;;;;;;;0.00;0.00;;;;;21.87;100.00;97420.00;2060767;28;46394;-58
2023/10/20 00:22:13;;;;;;;;;0.00;0.00;;;;;21.87;100.00;97414.59;2061930;28;46582;-59
2023/10/20 00:23:14;;;;;;;;;0.00;0.00;;;;;21.87;100.00;97411.91;2059563;28;46255;-59
2023/10/20 00:24:15;;;;;;;;;0.00;0.00;;;;;21.87;100.00;97405.66;2058671;28;46949;-57
2023/10/20 00:25:17;;;;;;;;;0.00;0.00;;;;;21.87;100.00;97401.09;2062129;28;46714;-59
2023/10/20 00:26:17;;;;;;;;;0.00;0.00;;;;;21.87;100.00;97403.81;2061992;28;46475;-58
2023/10/20 00:27:17;;;;;;;;;0.00;0.00;;;;;21.85;100.00;97388.78;2062912;28;46837;-57
2023/10/20 00:28:18;;;;;;;;;0.00;0.00;;;;;21.83;100.00;97388.97;2060496;28;46188;-57
2023/10/20 00:29:19;;;;;;;;;0.00;0.00;;;;;21.82;100.00;97383.75;2061655;28;46637;-53
2023/10/20 00:30:19;;;;;;;;;0.00;0.00;;;;;21.80;100.00;97388.53;2061720;28;46324;-57
2023/10/20 00:31:19;;;;;;;;;1.00;0.00;;;;;21.79;100.00;97376.88;2061487;28;46393;-58
2023/10/20 00:32:20;;;;;;;;;0.00;0.00;;;;;21.73;100.00;97386.56;2061317;28;45911;-58
2023/10/20 00:33:20;;;;;;;;;0.00;0.00;;;;;21.73;100.00;97383.03;2062121;28;46821;-58
2023/10/20 00:34:20;;;;;;;;;0.00;0.00;;;;;21.78;100.00;97379.78;2062185;28;46714;-59
2023/10/20 00:35:21;;;;;;;;;0.00;0.00;;;;;21.78;100.00;97385.16;2062256;28;46994;-55
2023/10/20 00:36:21;;;;;;;;;0.00;0.00;;;;;21.76;100.00;97379.13;2059365;28;46239;-58
2023/10/20 00:37:21;;;;;;;;;10.33;8.67;;;;;21.73;100.00;97397.38;2058275;28;46509;-58
2023/10/20 00:38:22;;;;;;;;;19.00;17.75;;;;;21.73;100.00;97401.94;2055775;28;46742;-56
2023/10/20 00:39:23;;;;;;;;;24.00;22.25;;;;;21.73;100.00;97393.84;2061110;28;46977;-59
2023/10/20 00:40:23;;;;;;;;;5.33;5.00;;;;;21.72;100.00;97386.72;2062682;28;46638;-57
2023/10/20 00:41:24;;;;;;;;;6.67;6.67;;;;;21.70;100.00;97392.31;2062903;28;46392;-56
2023/10/20 00:42:24;;;;;;;;;7.00;7.00;;;;;21.66;100.00;97390.19;2062041;28;47211;-59
2023/10/20 00:43:38;;;;;;;;;9.00;9.00;;;;;21.68;100.00;97393.53;2061352;28;46165;-57
2023/10/20 00:44:38;;;;;;;;;6.25;5.50;;;;;21.72;100.00;97392.13;2060571;28;45152;-60
2023/10/20 00:45:40;;;;;;;;;4.00;4.00;;;;;21.74;100.00;97398.22;2064742;28;46816;-58
2023/10/20 00:46:43;;;;;;;;;3.75;3.75;;;;;21.76;100.00;97395.31;2060990;28;46405;-57
2023/10/20 00:47:46;;;;;;;;;2.75;2.75;;;;;21.78;100.00;97394.09;2058742;28;46245;-55
2023/10/20 00:48:46;;;;;;;;;1.00;0.00;;;;;21.78;100.00;97390.56;2061903;28;47435;-58
2023/10/20 00:49:47;;;;;;;;;0.00;0.00;;;;;21.76;100.00;97388.06;2062873;28;46365;-56
2023/10/20 00:50:47;;;;;;;;;4.00;0.00;;;;;21.77;100.00;97392.44;2060720;28;46383;-58
2023/10/20 00:51:48;;;;;;;;;0.00;0.00;;;;;21.74;100.00;97396.34;2055272;28;47094;-58
2023/10/20 00:52:49;;;;;;;;;0.00;0.00;;;;;21.76;100.00;97398.00;2069751;27;46402;-57
2023/10/20 00:53:50;;;;;;;;;0.00;0.00;;;;;21.74;100.00;97393.66;2069475;28;46528;-56
2023/10/20 00:54:51;;;;;;;;;0.00;0.00;;;;;21.75;100.00;97402.56;2063232;28;46619;-53
2023/10/20 00:55:52;;;;;;;;;0.25;0.25;;;;;21.71;100.00;97401.25;2063507;28;46741;-58
2023/10/20 00:56:53;;;;;;;;;0.00;0.00;;;;;21.70;100.00;97418.47;2060979;28;46447;-56
2023/10/20 00:57:54;;;;;;;;;0.75;0.00;;;;;21.69;100.00;97414.09;2062867;28;46308;-56
2023/10/20 00:58:54;;;;;;;;;0.00;0.00;;;;;21.69;100.00;97400.59;2060453;28;46682;-57
2023/10/20 00:59:55;;;;;;;;;0.00;0.00;;;;;21.68;100.00;97404.31;2061987;28;46452;-57
2023/10/20 01:00:55;;;;;;;;;0.00;0.00;;;;;21.67;100.00;97397.25;2060758;28;46624;-58
2023/10/20 01:01:55;;;;;;;;;0.00;0.00;;;;;21.67;100.00;97392.69;2056641;28;45949;-57
2023/10/20 01:02:57;;;;;;;;;0.00;0.00;;;;;21.67;100.00;97394.56;2060627;28;46345;-58
2023/10/20 01:03:57;;;;;;;;;0.00;0.00;;;;;21.60;100.00;97391.75;2055630;28;46388;-59
2023/10/20 01:04:58;;;;;;;;;0.33;0.33;;;;;21.58;100.00;97390.25;2060542;28;46685;-57
2023/10/20 01:05:59;;;;;;;;;0.00;0.00;;;;;21.57;100.00;97393.97;2061843;28;46521;-56
2023/10/20 01:06:59;;;;;;;;;0.00;0.00;;;;;21.56;100.00;97393.13;2059510;28;46505;-58
2023/10/20 01:07:59;;;;;;;;;0.00;0.00;;;;;21.55;100.00;97393.31;2062915;28;46848;-56
2023/10/20 01:09:00;;;;;;;;;0.00;0.00;;;;;21.55;100.00;97386.06;2061256;28;46291;-54
2023/10/20 01:10:05;;;;;;;;;0.00;0.00;;;;;21.55;100.00;97382.53;2061825;28;46475;-58
2023/10/20 01:11:05;;;;;;;;;0.00;0.00;;;;;21.53;100.00;97377.31;2059425;28;46863;-58
2023/10/20 01:12:06;;;;;;;;;0.00;0.00;;;;;21.53;100.00;97368.38;2061389;28;47871;-58
2023/10/20 01:13:08;;;;;;;;;0.00;0.00;;;;;21.53;100.00;97371.09;2061218;28;46261;-58
2023/10/20 01:14:08;;;;;;;;;0.00;0.00;;;;;21.52;100.00;97366.72;2062459;28;46619;-57
2023/10/20 01:15:09;;;;;;;;;0.00;0.00;;;;;21.51;100.00;97356.94;2060998;28;46142;-55
2023/10/20 01:16:10;;;;;;;;;0.00;0.00;;;;;21.50;100.00;97353.41;2061963;28;46926;-55
2023/10/20 01:17:10;;;;;;;;;0.00;0.00;;;;;21.49;100.00;97351.75;2060911;28;46627;-58
2023/10/20 01:18:11;;;;;;;;;0.00;0.00;;;;;21.47;100.00;97351.09;2062930;28;46594;-56
2023/10/20 01:19:11;;;;;;;;;0.00;0.00;;;;;21.47;100.00;97344.81;2060052;28;46435;-59
2023/10/20 01:20:12;;;;;;;;;0.00;0.00;;;;;21.44;100.00;97341.47;2056001;28;46604;-58
2023/10/20 01:21:13;;;;;;;;;0.00;0.00;;;;;21.44;100.00;97341.47;2062571;28;46699;-58
2023/10/20 01:22:13;;;;;;;;;0.00;0.00;;;;;21.44;100.00;97352.28;2061612;28;46240;-57
2023/10/20 01:23:13;;;;;;;;;0.00;0.00;;;;;21.44;100.00;97354.13;2061813;28;46269;-59
2023/10/20 01:24:14;;;;;;;;;0.00;0.00;;;;;21.45;100.00;97353.94;2059826;28;46360;-58
2023/10/20 01:25:15;;;;;;;;;0.00;0.00;;;;;21.47;100.00;97358.31;2059425;28;46394;-58
2023/10/20 01:26:15;;;;;;;;;0.00;0.00;;;;;21.44;100.00;97357.66;2061380;28;46296;-59
2023/10/20 01:27:16;;;;;;;;;0.00;0.00;;;;;21.47;100.00;97359.19;2050601;28;45686;-57
2023/10/20 01:28:19;;;;;;;;;0.00;0.00;;;;;21.44;100.00;97357.66;2073920;28;46310;-58
2023/10/20 01:29:19;;;;;;;;;0.00;0.00;;;;;21.41;100.00;97360.75;2062981;28;47042;-58
2023/10/20 01:30:21;;;;;;;;;0.00;0.00;;;;;21.45;100.00;97356.66;2060808;28;46337;-59
2023/10/20 01:31:22;;;;;;;;;0.00;0.00;;;;;21.38;100.00;97355.72;2062415;28;48015;-59
2023/10/20 01:32:23;;;;;;;;;0.00;0.00;;;;;21.38;100.00;97355.72;2061757;28;45455;-57
2023/10/20 01:33:23;;;;;;;;;0.00;0.00;;;;;21.39;100.00;97353.84;2068225;28;46685;-58
2023/10/20 01:34:23;;;;;;;;;0.00;0.00;;;;;21.38;100.00;97353.03;2064416;28;46593;-56
2023/10/20 01:35:24;;;;;;;;;0.00;0.00;;;;;21.39;100.00;97345.75;2058557;28;46736;-56
2023/10/20 01:36:24;;;;;;;;;0.00;0.00;;;;;21.38;100.00;97330.59;2057898;28;46146;-58
2023/10/20 01:37:24;;;;;;;;;0.00;0.00;;;;;21.38;100.00;97336.00;2061721;28;46011;-58
2023/10/20 01:38:25;;;;;;;;;0.00;0.00;;;;;21.39;100.00;97327.72;2060485;28;45943;-58
2023/10/20 01:39:25;;;;;;;;;0.00;0.00;;;;;21.37;100.00;97331.63;2055478;28;45850;-54
2023/10/20 01:40:27;;;;;;;;;0.00;0.00;;;;;21.37;100.00;97329.78;2055979;28;46266;-56
2023/10/20 01:41:27;;;;;;;;;0.00;0.00;;;;;21.37;100.00;97324.38;2062339;28;46397;-57
2023/10/20 01:42:27;;;;;;;;;0.00;0.00;;;;;21.36;100.00;97328.09;2060675;28;46233;-58
2023/10/20 01:43:28;;;;;;;;;0.00;0.00;;;;;21.36;100.00;97324.56;2061749;28;46832;-58
2023/10/20 01:44:29;;;;;;;;;0.00;0.00;;;;;21.35;100.00;97315.63;2060192;28;46363;-58
2023/10/20 01:45:29;;;;;;;;;0.00;0.00;;;;;21.34;100.00;97316.66;2061431;28;46699;-56
2023/10/20 01:46:29;;;;;;;;;0.00;0.00;;;;;21.34;100.00;97313.97;2061714;28;46121;-55
2023/10/20 01:47:30;;;;;;;;;0.00;0.00;;;;;21.32;100.00;97312.44;2059807;28;46659;-58
2023/10/20 01:48:33;;;;;;;;;0.00;0.00;;;;;21.32;100.00;97302.50;2061004;28;46180;-57
2023/10/20 01:49:33;;;;;;;;;0.00;0.00;;;;;21.32;100.00;97302.50;2062888;28;46401;-59
2023/10/20 01:50:34;;;;;;;;;0.00;0.00;;;;;21.36;100.00;97303.81;2062266;28;46137;-58
2023/10/20 01:51:35;;;;;;;;;0.00;0.00;;;;;21.38;100.00;97300.94;2057908;28;46353;-58
2023/10/20 01:52:35;;;;;;;;;0.00;0.00;;;;;21.39;100.00;97295.34;2059974;28;45225;-58
2023/10/20 01:53:35;;;;;;;;;0.00;0.00;;;;;21.40;100.00;97288.94;2062670;28;46641;-57
2023/10/20 01:54:36;;;;;;;;;0.00;0.00;;;;;21.40;100.00;97293.50;2060047;28;46353;-54
2023/10/20 01:55:39;;;;;;;;;0.00;0.00;;;;;21.40;100.00;97283.53;2062458;28;46451;-57
2023/10/20 01:56:39;;;;;;;;;0.00;0.00;;;;;21.40;100.00;97285.41;2060002;28;46124;-58
2023/10/20 01:57:40;;;;;;;;;0.00;0.00;;;;;21.40;100.00;97288.09;2062002;28;46563;-57
2023/10/20 01:58:40;;;;;;;;;0.00;0.00;;;;;21.39;100.00;97279.16;2060814;28;46854;-58
2023/10/20 01:59:40;;;;;;;;;0.00;0.00;;;;;21.36;100.00;97286.81;2062607;28;46389;-54
2023/10/20 02:00:41;;;;;;;;;0.00;0.00;;;;;21.35;100.00;97283.25;2061936;28;46906;-57
2023/10/20 02:01:42;;;;;;;;;0.00;0.00;;;;;21.33;100.00;97287.97;2063319;28;46630;-53
2023/10/20 02:02:42;;;;;;;;;0.00;0.00;;;;;21.33;100.00;97284.44;2061386;28;46681;-57
2023/10/20 02:03:43;;;;;;;;;0.00;0.00;;;;;21.32;100.00;97280.06;2062460;28;46867;-56
2023/10/20 02:04:43;;;;;;;;;0.00;0.00;;;;;21.31;100.00;97281.09;2058979;28;46667;-57
2023/10/20 02:05:43;;;;;;;;;0.00;0.00;;;;;21.28;100.00;97276.91;2061664;28;46737;-59
2023/10/20 02:06:44;;;;;;;;;0.00;0.00;;;;;21.28;100.00;97276.09;2059484;28;46822;-58
2023/10/20 02:07:44;;;;;;;;;0.00;0.00;;;;;21.28;100.00;97276.91;2059994;28;46210;-58
2023/10/20 02:08:44;;;;;;;;;0.00;0.00;;;;;21.26;100.00;97268.19;2060215;28;46375;-56
2023/10/20 02:09:45;;;;;;;;;0.00;0.00;;;;;21.23;100.00;97265.84;2054705;28;46712;-58
2023/10/20 02:10:46;;;;;;;;;0.00;0.00;;;;;21.23;100.00;97265.00;2061026;28;46480;-59
2023/10/20 02:11:46;;;;;;;;;0.00;0.00;;;;;21.22;100.00;97264.16;2062718;28;46886;-58
2023/10/20 02:12:47;;;;;;;;;0.00;0.00;;;;;21.23;100.00;97260.44;2061114;28;46720;-57
2023/10/20 02:13:47;;;;;;;;;0.00;0.00;;;;;21.23;100.00;97259.59;2062591;28;46407;-56
2023/10/20 02:14:48;;;;;;;;;0.00;0.00;;;;;21.21;100.00;97251.66;2060606;28;46438;-56
2023/10/20 02:15:50;;;;;;;;;0.00;0.00;;;;;21.21;100.00;97248.97;2061537;28;46802;-57
2023/10/20 02:16:51;;;;;;;;;0.00;0.00;;;;;21.22;100.00;97249.84;2061607;28;46339;-56
2023/10/20 02:17:51;;;;;;;;;0.00;0.00;;;;;21.21;100.00;97256.22;2062741;28;46381;-58
2023/10/20 02:18:52;;;;;;;;;0.00;0.00;;;;;21.20;100.00;97252.69;2060586;28;46974;-57
2023/10/20 02:19:53;;;;;;;;;0.00;0.00;;;;;21.19;100.00;97253.72;2063063;28;46487;-56
2023/10/20 02:21:03;;;;;;;;;0.00;0.00;;;;;21.17;100.00;97256.59;2060193;28;46175;-55
2023/10/20 02:22:04;;;;;;;;;0.00;0.00;;;;;21.16;100.00;97256.78;2070377;28;46361;-58
2023/10/20 02:23:04;;;;;;;;;0.00;0.00;;;;;21.14;100.00;97248.88;2073126;28;46292;-55
2023/10/20 02:24:05;;;;;;;;;0.00;0.00;;;;;21.14;100.00;97239.97;2065859;28;46415;-59
2023/10/20 02:25:06;;;;;;;;;0.00;0.00;;;;;21.14;100.00;97246.19;2060661;28;46507;-57
2023/10/20 02:26:08;;;;;;;;;0.00;0.00;;;;;21.14;100.00;97239.97;2062045;28;46694;-59
2023/10/20 02:27:08;;;;;;;;;0.00;0.00;;;;;21.12;100.00;97233.91;2059302;28;46572;-58
2023/10/20 02:28:08;;;;;;;;;0.00;0.00;;;;;21.12;100.00;97220.44;2062015;28;46915;-58
2023/10/20 02:29:09;;;;;;;;;0.00;0.00;;;;;21.13;100.00;97214.84;2059398;28;46692;-58
2023/10/20 02:30:12;;;;;;;;;0.00;0.00;;;;;21.15;100.00;97201.19;2057424;28;46388;-58
2023/10/20 02:31:20;;;;;;;;;0.00;0.00;;;;;21.15;100.00;97193.94;2060705;28;46473;-56
2023/10/20 02:32:20;;;;;;;;;0.00;0.00;;;;;21.15;100.00;97185.84;2061909;28;46591;-58
2023/10/20 02:33:20;;;;;;;;;1.00;1.00;;;;;21.16;100.00;97186.69;2057623;28;46225;-55
2023/10/20 02:34:22;;;;;;;;;0.00;0.00;;;;;21.16;100.00;97186.69;2060415;28;46592;-57
2023/10/20 02:35:23;;;;;;;;;0.00;0.00;;;;;21.17;100.00;97193.75;2058989;28;47057;-57
2023/10/20 02:36:24;;;;;;;;;0.00;0.00;;;;;21.15;100.00;97196.63;2060255;28;46447;-58
2023/10/20 02:37:24;;;;;;;;;0.00;0.00;;;;;21.14;100.00;97194.13;2059053;28;46414;-57
2023/10/20 02:38:24;;;;;;;;;0.00;0.00;;;;;21.13;100.00;97200.53;2061437;28;46529;-58
2023/10/20 02:39:25;;;;;;;;;0.00;0.00;;;;;21.12;100.00;97204.25;2062973;28;46565;-58
2023/10/20 02:40:25;;;;;;;;;0.00;0.00;;;;;21.09;100.00;97201.94;2064045;28;45967;-57
2023/10/20 02:41:25;;;;;;;;;0.00;0.00;;;;;21.08;100.00;97211.03;2062521;28;46302;-57
2023/10/20 02:42:26;;;;;;;;;0.00;0.00;;;;;21.07;100.00;97212.06;2058968;28;46650;-57
2023/10/20 02:43:26;;;;;;;;;0.00;0.00;;;;;21.05;100.00;97212.25;2061540;28;46046;-58
2023/10/20 02:44:27;;;;;;;;;0.00;0.00;;;;;21.03;100.00;97211.59;2060729;28;46578;-57
2023/10/20 02:45:27;;;;;;;;;0.00;0.00;;;;;21.02;100.00;97211.78;2066985;28;46407;-54
2023/10/20 02:46:28;;;;;;;;;0.00;0.00;;;;;21.01;100.00;97215.50;2068836;27;46385;-56
2023/10/20 02:47:28;;;;;;;;;0.00;0.00;;;;;20.98;100.00;97211.31;2059759;28;46428;-56
2023/10/20 02:48:29;;;;;;;;;0.00;0.00;;;;;20.97;100.00;97204.25;2059456;28;46165;-58
2023/10/20 02:49:29;;;;;;;;;0.00;0.00;;;;;20.95;100.00;97200.88;2060691;28;46408;-58
2023/10/20 02:50:29;;;;;;;;;0.00;0.00;;;;;20.94;100.00;97198.38;2058616;28;46661;-58
2023/10/20 02:51:30;;;;;;;;;0.00;0.00;;;;;20.95;100.00;97205.44;2057570;28;46502;-58
2023/10/20 02:52:30;;;;;;;;;0.00;0.00;;;;;20.93;100.00;97204.78;2057476;28;46261;-57
2023/10/20 02:53:30;;;;;;;;;0.00;0.00;;;;;20.92;100.00;97203.94;2061569;28;46433;-58
2023/10/20 02:54:31;;;;;;;;;0.00;0.00;;;;;20.92;100.00;97208.50;2059019;28;46647;-57
2023/10/20 02:55:31;;;;;;;;;0.00;0.00;;;;;20.91;100.00;97212.22;2061861;28;46218;-58
2023/10/20 02:56:32;;;;;;;;;0.00;0.00;;;;;20.90;100.00;97216.78;2059592;28;46210;-54
2023/10/20 02:57:32;;;;;;;;;0.00;0.00;;;;;20.91;100.00;97209.53;2059089;28;45823;-57
2023/10/20 02:58:33;;;;;;;;;0.00;0.00;;;;;20.89;100.00;97200.78;2093228;28;45467;-57
2023/10/20 02:59:33;;;;;;;;;0.00;0.00;;;;;20.90;100.00;97206.00;2094707;28;46269;-58
2023/10/20 03:00:33;;;;;;;;;0.00;0.00;;;;;20.91;100.00;97207.66;2059659;28;46600;-58
2023/10/20 03:01:34;;;;;;;;;0.00;0.00;;;;;20.90;100.00;97200.59;2061476;28;46703;-58
2023/10/20 03:02:34;;;;;;;;;0.00;0.00;;;;;20.92;100.00;97208.50;2061758;28;46612;-58
2023/10/20 03:03:35;;;;;;;;;0.00;0.00;;;;;20.92;100.00;97208.50;2056660;28;46707;-58
2023/10/20 03:04:36;;;;;;;;;0.00;0.00;;;;;20.93;100.00;97205.63;2059584;28;46326;-55
2023/10/20 03:05:36;;;;;;;;;0.00;0.00;;;;;20.92;100.00;97193.16;2060017;28;46845;-58
2023/10/20 03:06:37;;;;;;;;;0.00;0.00;;;;;20.94;100.00;97201.06;2062598;28;46248;-56
2023/10/20 03:07:37;;;;;;;;;0.00;0.00;;;;;20.95;100.00;97200.03;2061155;28;46584;-58
2023/10/20 03:08:38;;;;;;;;;0.00;0.00;;;;;20.94;100.00;97192.97;2060299;28;45536;-58
2023/10/20 03:09:39;;;;;;;;;0.00;0.00;;;;;20.95;100.00;97194.66;2060849;28;47114;-58
2023/10/20 03:10:39;;;;;;;;;0.00;0.00;;;;;20.96;100.00;97193.63;2060089;28;46722;-58
2023/10/20 03:11:40;;;;;;;;;0.00;0.00;;;;;20.95;100.00;97184.72;2061421;28;46651;-57
2023/10/20 03:12:40;;;;;;;;;0.00;0.00;;;;;20.95;100.00;97176.63;2059047;28;46614;-56
2023/10/20 03:13:41;;;;;;;;;0.00;0.00;;;;;20.96;100.00;97177.47;2062268;28;46304;-57
2023/10/20 03:14:41;;;;;;;;;0.00;0.00;;;;;20.96;100.00;97172.06;2058258;28;46891;-58
2023/10/20 03:15:42;;;;;;;;;0.00;0.00;;;;;20.94;100.00;97169.56;2061391;28;46613;-57
2023/10/20 03:16:45;;;;;;;;;0.00;0.00;;;;;20.96;100.00;97174.75;2060082;28;46197;-58
2023/10/20 03:17:45;;;;;;;;;0.00;0.00;;;;;20.95;100.00;97173.94;2060569;28;46636;-56
2023/10/20 03:18:46;;;;;;;;;0.00;0.00;;;;;20.96;100.00;97180.16;2059224;27;46407;-58
2023/10/20 03:19:46;;;;;;;;;0.00;0.00;;;;;20.96;100.00;97188.25;2062331;28;46407;-58
2023/10/20 03:20:50;;;;;;;;;0.00;0.00;;;;;20.92;100.00;97177.00;2060747;28;46878;-59
2023/10/20 03:21:51;;;;;;;;;0.00;0.00;;;;;20.93;100.00;97172.44;2061036;28;46859;-58
2023/10/20 03:22:52;;;;;;;;;0.00;0.00;;;;;20.94;100.00;97174.13;2059839;28;46728;-57
2023/10/20 03:23:52;;;;;;;;;0.00;0.00;;;;;20.94;100.00;97161.47;2062122;28;46906;-55
2023/10/20 03:24:54;;;;;;;;;0.00;0.00;;;;;20.90;100.00;97170.13;2059733;28;46428;-57
2023/10/20 03:25:55;;;;;;;;;0.00;0.00;;;;;20.93;100.00;97161.66;2054045;28;46104;-59
2023/10/20 03:26:55;;;;;;;;;0.00;0.00;;;;;20.93;100.00;97164.34;2060973;28;46690;-55
2023/10/20 03:27:55;;;;;;;;;0.00;0.00;;;;;20.94;100.00;97171.41;2061861;28;46498;-55
2023/10/20 03:28:56;;;;;;;;;0.67;0.00;;;;;20.94;100.00;97160.63;2074022;28;46621;-59
2023/10/20 03:29:56;;;;;;;;;0.00;0.00;;;;;20.93;100.00;97156.28;2077696;28;46257;-58
2023/10/20 03:30:56;;;;;;;;;0.00;0.00;;;;;20.92;100.00;97152.75;2059274;28;45520;-58
2023/10/20 03:31:57;;;;;;;;;0.00;0.00;;;;;20.92;100.00;97146.50;2054367;28;46424;-57
2023/10/20 03:32:58;;;;;;;;;0.00;0.00;;;;;20.93;100.00;97137.41;2057502;28;45088;-55
2023/10/20 03:33:58;;;;;;;;;0.00;0.00;;;;;20.92;100.00;97139.25;2062162;28;46664;-54
2023/10/20 03:34:59;;;;;;;;;0.00;0.00;;;;;20.92;100.00;97130.34;2060215;28;46254;-56
2023/10/20 03:36:03;;;;;;;;;0.00;0.00;;;;;20.92;100.00;97133.88;2061937;28;46267;-58
2023/10/20 03:37:03;;;;;;;;;0.00;0.00;;;;;20.91;100.00;97125.97;2060647;28;46939;-55
2023/10/20 03:38:06;;;;;;;;;0.00;0.00;;;;;20.87;100.00;97130.91;2060743;28;46763;-57
2023/10/20 03:39:19;;;;;;;;;0.00;0.00;;;;;20.91;100.00;97128.66;2061652;28;46586;-56
2023/10/20 03:40:24;;;;;;;;;0.00;0.00;;;;;20.94;100.00;97131.00;2060766;28;46549;-57
2023/10/20 03:41:25;;;;;;;;;0.00;0.00;;;;;20.95;100.00;97127.28;2066281;28;46692;-59
2023/10/20 03:42:25;;;;;;;;;0.00;0.00;;;;;20.95;100.00;97130.81;2058466;28;45746;-58
2023/10/20 03:43:28;;;;;;;;;0.00;0.00;;;;;20.95;100.00;97128.09;2053359;28;46259;-57
2023/10/20 03:44:28;;;;;;;;;1.00;0.00;;;;;20.95;100.00;97127.28;2059699;28;46437;-59
2023/10/20 03:45:28;;;;;;;;;0.00;0.00;;;;;20.95;100.00;97124.56;2061404;28;46248;-56
2023/10/20 03:46:30;;;;;;;;;0.00;0.00;;;;;20.95;100.00;97121.88;2050797;28;46570;-58
2023/10/20 03:47:34;;;;;;;;;0.00;0.00;;;;;20.94;100.00;97123.75;2060842;28;46356;-58
2023/10/20 03:48:34;;;;;;;;;0.00;0.00;;;;;20.94;100.00;97131.00;2059348;28;45771;-57
2023/10/20 03:49:35;;;;;;;;;0.00;0.00;;;;;20.93;100.00;97123.94;2060452;28;46881;-59
2023/10/20 03:50:41;;;;;;;;;0.00;0.00;;;;;20.91;100.00;97131.38;2058826;28;46531;-57
2023/10/20 03:51:53;;;;;;;;;0.00;0.00;;;;;20.89;100.00;97130.72;2054526;28;46940;-57
2023/10/20 03:52:53;;;;;;;;;0.00;0.00;;;;;20.88;100.00;97134.44;2059630;28;46409;-56
2023/10/20 03:53:55;;;;;;;;;0.00;0.00;;;;;20.88;100.00;97137.13;2061675;28;46335;-53
2023/10/20 03:54:56;;;;;;;;;0.00;0.00;;;;;20.88;100.00;97147.91;2060669;28;46070;-60
2023/10/20 03:56:02;;;;;;;;;0.00;0.00;;;;;20.87;100.00;97147.09;2062196;28;46505;-59
2023/10/20 03:57:03;;;;;;;;;0.00;0.00;;;;;20.88;100.00;97150.59;2059253;28;45582;-55
2023/10/20 03:58:03;;;;;;;;;0.00;0.00;;;;;20.85;100.00;97147.28;2061679;28;46837;-57
2023/10/20 03:59:04;;;;;;;;;0.00;0.00;;;;;20.86;100.00;97148.09;2056530;28;46528;-57
2023/10/20 04:01:27;;;;;;;;;0.00;0.00;;;;;20.86;100.00;97158.88;2058169;28;46331;-57
2023/10/20 04:02:27;;;;;;;;;0.00;0.00;;;;;20.86;100.00;97151.63;2057474;28;46801;-55
2023/10/20 04:03:31;;;;;;;;;0.00;0.00;;;;;20.87;100.00;97163.25;2061395;28;47065;-57
2023/10/20 04:04:31;;;;;;;;;0.00;0.00;;;;;20.87;100.00;97168.66;2059098;28;46663;-59
2023/10/20 04:05:32;;;;;;;;;0.00;0.00;;;;;20.87;100.00;97184.81;2057076;28;46524;-57
2023/10/20 04:06:33;;;;;;;;;0.00;0.00;;;;;20.88;100.00;97182.94;2058565;28;46734;-55
2023/10/20 04:07:33;;;;;;;;;0.00;0.00;;;;;20.86;100.00;97192.06;2063201;28;46956;-56
2023/10/20 04:08:34;;;;;;;;;0.00;0.00;;;;;20.86;100.00;97193.91;2059033;28;46396;-58
2023/10/20 04:09:36;;;;;;;;;0.00;0.00;;;;;20.88;100.00;97196.44;2063298;28;46859;-58
2023/10/20 04:10:37;;;;;;;;;0.00;0.00;;;;;20.82;100.00;97195.28;2061225;28;46927;-57
2023/10/20 04:11:38;;;;;;;;;0.00;0.00;;;;;20.85;100.00;97203.03;2057114;28;46595;-54
2023/10/20 04:12:41;;;;;;;;;0.00;0.00;;;;;20.85;100.00;97205.72;2059758;28;46372;-56
2023/10/20 04:13:42;;;;;;;;;0.00;0.00;;;;;20.85;100.00;97201.16;2062518;28;46723;-57
2023/10/20 04:14:42;;;;;;;;;0.00;0.00;;;;;20.86;100.00;97197.44;2059368;28;46485;-59
2023/10/20 04:15:42;;;;;;;;;0.00;0.00;;;;;20.83;100.00;97194.25;2063486;28;46240;-57
2023/10/20 04:16:43;;;;;;;;;0.00;0.00;;;;;20.84;100.00;97194.09;2061114;28;46279;-57
2023/10/20 04:17:55;;;;;;;;;0.00;0.00;;;;;20.84;100.00;97187.88;2062380;28;46263;-57
2023/10/20 04:18:55;;;;;;;;;1.00;0.00;;;;;20.82;100.00;97190.72;2058874;28;46873;-58
2023/10/20 04:19:55;;;;;;;;;0.00;0.00;;;;;20.82;100.00;97190.72;2063546;28;46278;-58
2023/10/20 04:20:57;;;;;;;;;0.00;0.00;;;;;20.80;100.00;97186.56;2061733;28;46373;-57
2023/10/20 04:21:58;;;;;;;;;0.00;0.00;;;;;20.80;100.00;97194.63;2055881;28;46176;-55
2023/10/20 04:22:58;;;;;;;;;1.33;1.33;;;;;20.80;100.00;97194.63;2060485;28;46670;-59
2023/10/20 04:23:59;;;;;;;;;1.00;1.00;;;;;20.79;100.00;97192.97;2095783;28;46512;-59
2023/10/20 04:24:59;;;;;;;;;0.33;0.33;;;;;20.79;100.00;97192.97;2091710;28;46546;-58
2023/10/20 04:26:00;;;;;;;;;0.00;0.00;;;;;20.82;100.00;97193.44;2061575;28;46375;-58
2023/10/20 04:27:00;;;;;;;;;1.00;1.00;;;;;20.81;100.00;97202.53;2060521;28;46827;-58
2023/10/20 04:28:12;;;;;;;;;1.00;1.00;;;;;20.79;100.00;97201.88;2063273;28;46921;-56
2023/10/20 04:43:37;;;;;;;;;0.00;0.00;;;;;20.77;100.00;97225.50;2054102;28;46752;-58
2023/10/20 04:47:06;;;;;;;;;0.75;0.00;;;;;20.78;100.00;97229.84;2049191;28;46346;-57
2023/10/20 04:50:25;;;;;;;;;0.00;0.00;;;;;20.78;100.00;97240.63;2062668;28;46739;-58
2023/10/20 04:51:22;;;;;;;;;0.00;0.00;;;;;20.77;100.00;97241.66;2059731;28;46917;-59
2023/10/20 04:58:35;;;;;;;;;0.00;0.00;;;;;20.74;100.00;97260.88;2061152;28;46354;-58
2023/10/20 04:59:35;;;;;;;;;0.00;0.00;;;;;20.74;100.00;97266.28;2062716;28;46546;-58
2023/10/20 05:00:40;;;;;;;;;0.00;0.00;;;;;20.75;100.00;97273.34;2060945;28;46196;-57
2023/10/20 05:01:41;;;;;;;;;0.00;0.00;;;;;20.74;100.00;97266.28;2059348;28;46928;-54
2023/10/20 05:03:54;;;;;;;;;0.00;0.00;;;;;20.72;100.00;97272.88;2055797;28;46603;-56
2023/10/20 05:04:55;;;;;;;;;0.00;0.00;;;;;20.69;100.00;97267.81;2056079;28;46796;-56
2023/10/20 05:06:05;;;;;;;;;1.00;0.00;;;;;20.68;100.00;97271.53;2057011;28;45829;-60
2023/10/20 05:07:05;;;;;;;;;0.00;0.00;;;;;20.68;100.00;97277.78;2061060;28;46305;-57
2023/10/20 05:08:17;;;;;;;;;0.00;0.00;;;;;20.67;100.00;97278.78;2062576;28;45836;-59
2023/10/20 05:09:17;;;;;;;;;0.00;0.00;;;;;20.67;100.00;97272.56;2061777;28;46494;-58
2023/10/20 05:10:19;;;;;;;;;0.00;0.00;;;;;20.68;100.00;97279.63;2060734;28;46373;-58
2023/10/20 05:11:20;;;;;;;;;0.00;0.00;;;;;20.66;100.00;97269.03;2062589;28;46368;-61
2023/10/20 05:12:20;;;;;;;;;0.00;0.00;;;;;20.71;100.00;97273.88;2061094;28;46778;-53